createdAt,value
2022-12-25T00:01:11.758Z,96.85
2022-12-25T00:03:50.048Z,92.28
2022-12-25T00:06:17.823Z,93.32
2022-12-25T00:08:45.465Z,87.30
2022-12-25T00:11:15.054Z,90.72
2022-12-25T00:13:43.620Z,88.97
2022-12-25T00:16:18.288Z,85.10
2022-12-25T00:18:46.590Z,86.75
2022-12-25T00:21:14.831Z,88.72
2022-12-25T00:23:43.094Z,96.03
2022-12-25T00:26:17.126Z,98.25
2022-12-25T00:28:44.912Z,122.20
2022-12-25T00:31:17.465Z,101.45
2022-12-25T00:33:46.749Z,87.72
2022-12-25T00:36:15.952Z,97.78
2022-12-25T00:38:44.009Z,88.43
2022-12-25T00:41:40.136Z,92.45
2022-12-25T00:44:09.648Z,89.65
2022-12-25T00:46:37.012Z,92.75
2022-12-25T00:49:04.602Z,95.10
2022-12-25T00:51:32.179Z,92.88
2022-12-25T00:53:59.815Z,106.97
2022-12-25T00:56:26.975Z,102.78
2022-12-25T00:58:55.229Z,100.78
2022-12-25T01:01:22.670Z,107.97
2022-12-25T01:03:50.059Z,98.47
2022-12-25T01:06:17.355Z,97.07
2022-12-25T01:09:04.726Z,95.50
2022-12-25T01:11:32.283Z,103.78
2022-12-25T01:13:59.876Z,95.63
2022-12-25T01:16:27.671Z,101.38
2022-12-25T01:18:55.407Z,84.35
2022-12-25T01:21:23.305Z,95.18
2022-12-25T01:23:52.567Z,91.05
2022-12-25T01:26:21.519Z,92.40
2022-12-25T01:28:50.925Z,94.32
2022-12-25T01:31:20.224Z,105.63
2022-12-25T01:33:47.925Z,101.05
2022-12-25T01:36:21.033Z,140.07
2022-12-25T01:38:49.376Z,90.43
2022-12-25T01:41:18.414Z,90.50
2022-12-25T01:44:07.549Z,102.82
2022-12-25T01:46:36.025Z,111.40
2022-12-25T01:49:15.580Z,123.70
2022-12-25T01:51:45.430Z,106.45
2022-12-25T01:54:16.427Z,86.47
2022-12-25T01:56:44.386Z,82.53
2022-12-25T01:59:12.293Z,91.93
2022-12-25T02:01:39.728Z,91.15
2022-12-25T02:04:17.083Z,87.63
2022-12-25T02:06:44.278Z,84.55
2022-12-25T02:09:11.683Z,86.38
2022-12-25T02:11:57.660Z,85.50
2022-12-25T02:14:30.815Z,90.40
2022-12-25T02:17:24.867Z,86.35
2022-12-25T02:20:13.824Z,132.52
2022-12-25T02:23:22.554Z,107.07
2022-12-25T02:25:58.679Z,98.97
2022-12-25T02:28:34.716Z,94.13
2022-12-25T02:31:09.155Z,91.47
2022-12-25T02:34:03.461Z,70.88
2022-12-25T02:37:08.214Z,79.28
2022-12-25T02:39:59.966Z,75.28
2022-12-25T02:42:57.682Z,71.78
2022-12-25T02:46:16.874Z,68.97
2022-12-25T02:49:07.209Z,71.65
2022-12-25T02:51:55.908Z,64.20
2022-12-25T02:54:50.473Z,80.80
2022-12-25T02:57:37.622Z,77.35
2022-12-25T03:00:26.161Z,71.82
2022-12-25T03:03:12.056Z,72.45
2022-12-25T03:05:59.586Z,71.72
2022-12-25T03:08:36.327Z,72.03
2022-12-25T03:11:25.468Z,63.42
2022-12-25T03:13:55.703Z,62.65
2022-12-25T03:16:41.751Z,55.00
2022-12-25T03:19:41.176Z,57.30
2022-12-25T03:22:30.961Z,59.05
2022-12-25T03:25:17.018Z,61.33
2022-12-25T03:27:45.414Z,61.13
2022-12-25T03:30:31.642Z,55.38
2022-12-25T03:33:36.654Z,72.32
2022-12-25T03:36:36.839Z,59.33
2022-12-25T03:39:33.443Z,56.83
2022-12-25T03:42:20.716Z,55.83
2022-12-25T03:45:22.492Z,53.35
2022-12-25T03:48:11.012Z,59.60
2022-12-25T03:51:06.810Z,68.30
2022-12-25T03:53:58.330Z,73.70
2022-12-25T03:56:45.120Z,93.80
2022-12-25T03:59:31.355Z,78.63
2022-12-25T04:02:17.172Z,56.25
2022-12-25T04:05:03.006Z,62.17
2022-12-25T04:07:48.927Z,64.97
2022-12-25T04:10:34.486Z,61.95
2022-12-25T04:13:20.392Z,65.80
2022-12-25T04:16:06.141Z,64.50
2022-12-25T04:18:52.020Z,59.53
2022-12-25T04:21:37.701Z,62.88
2022-12-25T04:24:24.065Z,66.47
2022-12-25T04:27:10.040Z,88.50
2022-12-25T04:29:55.965Z,87.75
2022-12-25T04:32:41.706Z,66.10
2022-12-25T04:35:27.669Z,57.28
2022-12-25T04:37:54.932Z,64.05
2022-12-25T04:40:22.298Z,78.28
2022-12-25T04:42:52.667Z,61.30
2022-12-25T04:45:20.478Z,109.28
2022-12-25T04:47:47.642Z,87.97
2022-12-25T04:50:14.923Z,64.10
2022-12-25T04:52:42.084Z,61.80
2022-12-25T04:55:10.175Z,80.55
2022-12-25T04:57:37.815Z,84.38
2022-12-25T05:00:06.369Z,76.68
2022-12-25T05:02:34.206Z,69.50
2022-12-25T05:05:02.200Z,63.75
2022-12-25T05:07:29.427Z,59.20
2022-12-25T05:09:56.790Z,99.82
2022-12-25T05:12:23.927Z,156.52
2022-12-25T05:14:51.351Z,123.90
2022-12-25T05:17:18.461Z,103.57
2022-12-25T05:19:45.912Z,84.32
2022-12-25T05:22:13.171Z,85.97
2022-12-25T05:24:40.615Z,68.53
2022-12-25T05:27:07.817Z,65.03
2022-12-25T05:29:35.106Z,60.65
2022-12-25T05:34:48.000Z,223.82
2022-12-25T05:37:15.348Z,154.30
2022-12-25T05:39:42.556Z,123.78
2022-12-25T05:42:09.997Z,129.98
2022-12-25T05:44:37.280Z,109.20
2022-12-25T05:47:04.730Z,91.18
2022-12-25T05:49:31.892Z,68.47
2022-12-25T05:51:59.335Z,60.50
2022-12-25T05:54:27.722Z,74.75
2022-12-25T05:56:55.132Z,76.38
2022-12-25T05:59:22.212Z,71.60
2022-12-25T06:01:49.611Z,73.30
2022-12-25T06:04:16.957Z,69.35
2022-12-25T06:06:44.302Z,72.03
2022-12-25T06:09:12.275Z,78.00
2022-12-25T06:11:40.518Z,74.53
2022-12-25T06:14:11.754Z,71.75
2022-12-25T06:16:39.480Z,68.05
2022-12-25T06:19:06.854Z,67.38
2022-12-25T06:21:34.295Z,70.75
2022-12-25T06:24:01.839Z,67.25
2022-12-25T06:26:29.398Z,76.03
2022-12-25T06:28:56.710Z,76.05
2022-12-25T06:31:24.268Z,63.63
2022-12-25T06:33:51.758Z,82.60
2022-12-25T06:36:23.024Z,72.93
2022-12-25T06:38:50.584Z,74.15
2022-12-25T06:41:23.383Z,72.30
2022-12-25T06:43:52.282Z,65.80
2022-12-25T06:46:20.797Z,62.75
2022-12-25T06:48:49.932Z,97.32
2022-12-25T06:51:19.309Z,102.18
2022-12-25T06:53:47.872Z,88.47
2022-12-25T06:56:17.480Z,77.68
2022-12-25T06:58:46.455Z,75.20
2022-12-25T07:01:47.267Z,81.78
2022-12-25T07:04:16.342Z,71.05
2022-12-25T07:06:43.576Z,87.20
2022-12-25T07:09:10.834Z,88.68
2022-12-25T07:11:38.176Z,99.63
2022-12-25T07:14:05.344Z,96.63
2022-12-25T07:16:32.824Z,107.40
2022-12-25T07:19:01.383Z,86.35
2022-12-25T07:21:28.716Z,93.25
2022-12-25T07:23:55.852Z,102.40
2022-12-25T07:26:23.098Z,97.80
2022-12-25T07:28:50.381Z,97.63
2022-12-25T07:31:18.670Z,101.78
2022-12-25T07:33:45.995Z,121.82
2022-12-25T07:36:14.256Z,105.82
2022-12-25T07:38:42.760Z,116.57
2022-12-25T07:41:11.483Z,116.50
2022-12-25T07:43:38.760Z,111.07
2022-12-25T07:46:06.442Z,124.03
2022-12-25T07:48:33.929Z,127.28
2022-12-25T07:51:03.500Z,109.85
2022-12-25T07:53:30.997Z,107.80
2022-12-25T07:55:59.695Z,114.53
2022-12-25T07:58:27.292Z,107.03
2022-12-25T08:00:54.986Z,105.28
2022-12-25T08:03:22.529Z,105.35
2022-12-25T08:05:50.173Z,130.10
2022-12-25T08:08:17.332Z,101.72
2022-12-25T08:10:46.450Z,120.82
2022-12-25T08:13:14.768Z,115.10
2022-12-25T08:15:42.490Z,108.05
2022-12-25T08:18:09.718Z,107.88
2022-12-25T08:20:37.144Z,105.22
2022-12-25T08:23:05.114Z,125.18
2022-12-25T08:25:32.846Z,103.68
2022-12-25T08:28:01.524Z,96.28
2022-12-25T08:30:28.883Z,119.55
2022-12-25T08:32:56.101Z,104.28
2022-12-25T08:35:23.573Z,104.78
2022-12-25T08:37:50.726Z,112.35
2022-12-25T08:40:18.371Z,139.65
2022-12-25T08:42:45.515Z,116.30
2022-12-25T08:45:12.814Z,123.88
2022-12-25T08:47:39.895Z,142.00
2022-12-25T08:50:08.137Z,130.38
2022-12-25T08:52:35.405Z,123.25
2022-12-25T08:55:02.804Z,137.38
2022-12-25T08:57:29.951Z,139.60
2022-12-25T08:59:57.272Z,147.65
2022-12-25T09:02:24.676Z,148.77
2022-12-25T09:04:52.034Z,145.57
2022-12-25T09:07:19.182Z,147.13
2022-12-25T09:09:46.567Z,150.82
2022-12-25T09:12:13.818Z,148.30
2022-12-25T09:14:41.148Z,154.38
2022-12-25T09:17:08.230Z,126.03
2022-12-25T09:19:35.620Z,138.45
2022-12-25T09:22:03.069Z,124.72
2022-12-25T09:24:30.409Z,126.97
2022-12-25T09:26:57.590Z,124.97
2022-12-25T09:29:25.005Z,115.05
2022-12-25T09:31:52.145Z,131.15
2022-12-25T09:34:19.450Z,117.50
2022-12-25T09:36:46.717Z,123.25
2022-12-25T09:39:14.075Z,117.20
2022-12-25T09:41:51.178Z,109.53
2022-12-25T09:44:21.981Z,112.40
2022-12-25T09:47:11.986Z,117.03
2022-12-25T09:49:45.118Z,103.38
2022-12-25T09:55:06.749Z,109.80
2022-12-25T09:57:34.041Z,112.88
2022-12-25T10:00:01.347Z,114.63
2022-12-25T10:02:51.469Z,118.75
2022-12-25T10:05:56.118Z,108.68
2022-12-25T10:08:29.200Z,111.40
2022-12-25T10:11:05.552Z,97.13
2022-12-25T10:13:45.388Z,101.25
2022-12-25T10:16:33.814Z,104.75
2022-12-25T10:19:29.688Z,90.88
2022-12-25T10:22:03.117Z,85.22
2022-12-25T10:24:41.139Z,93.15
2022-12-25T10:27:18.493Z,84.55
2022-12-25T10:29:48.865Z,87.65
2022-12-25T10:32:16.212Z,84.55
2022-12-25T10:34:43.747Z,83.47
2022-12-25T10:37:12.113Z,85.82
2022-12-25T10:39:45.827Z,85.25
2022-12-25T10:42:31.428Z,86.22
2022-12-25T10:45:04.512Z,71.72
2022-12-25T10:47:34.557Z,83.07
2022-12-25T10:50:09.235Z,71.43
2022-12-25T10:52:57.032Z,68.30
2022-12-25T10:55:28.792Z,71.72
2022-12-25T10:57:58.040Z,62.65
2022-12-25T11:00:28.493Z,62.13
2022-12-25T11:02:56.377Z,59.35
2022-12-25T11:05:29.285Z,64.75
2022-12-25T11:07:58.671Z,55.17
2022-12-25T11:10:44.048Z,67.55
2022-12-25T11:13:20.941Z,57.13
2022-12-25T11:15:49.505Z,50.45
2022-12-25T11:18:24.097Z,44.83
2022-12-25T11:20:52.968Z,47.35
2022-12-25T11:23:22.271Z,49.92
2022-12-25T11:26:01.913Z,55.45
2022-12-25T11:28:31.463Z,44.40
2022-12-25T11:31:03.584Z,45.72
2022-12-25T11:33:35.840Z,45.08
2022-12-25T11:36:13.120Z,43.55
2022-12-25T11:38:40.419Z,43.15
2022-12-25T11:41:10.102Z,46.22
2022-12-25T11:43:46.203Z,47.00
2022-12-25T11:46:24.782Z,41.78
2022-12-25T11:48:56.385Z,41.72
2022-12-25T11:51:30.984Z,41.78
2022-12-25T11:54:01.569Z,43.47
2022-12-25T11:56:30.723Z,41.78
2022-12-25T11:59:06.496Z,41.63
2022-12-25T12:01:37.649Z,40.33
2022-12-25T12:04:13.101Z,44.08
2022-12-25T12:06:48.327Z,46.80
2022-12-25T12:09:25.039Z,43.70
2022-12-25T12:12:04.184Z,37.15
2022-12-25T12:14:43.157Z,41.95
2022-12-25T12:17:12.596Z,42.53
2022-12-25T12:19:39.949Z,47.80
2022-12-25T12:22:07.116Z,52.10
2022-12-25T12:24:44.367Z,43.42
2022-12-25T12:27:28.396Z,46.78
2022-12-25T12:29:57.739Z,51.05
2022-12-25T12:32:36.021Z,43.67
2022-12-25T12:35:14.360Z,50.40
2022-12-25T12:37:42.348Z,43.80
2022-12-25T12:40:24.084Z,49.20
2022-12-25T12:42:52.429Z,46.65
2022-12-25T12:45:25.449Z,46.50
2022-12-25T12:47:53.693Z,43.90
2022-12-25T12:50:30.928Z,44.65
2022-12-25T12:52:58.568Z,42.55
2022-12-25T12:55:31.394Z,38.40
2022-12-25T12:58:00.623Z,44.80
2022-12-25T13:00:37.021Z,43.92
2022-12-25T13:03:36.907Z,45.88
2022-12-25T13:06:11.597Z,49.80
2022-12-25T13:09:20.313Z,47.20
2022-12-25T13:11:48.138Z,51.95
2022-12-25T13:14:19.258Z,60.25
2022-12-25T13:16:48.154Z,51.05
2022-12-25T13:19:18.489Z,47.53
2022-12-25T13:22:27.517Z,47.05
2022-12-25T13:25:00.504Z,49.58
2022-12-25T13:27:30.682Z,56.70
2022-12-25T13:29:58.630Z,54.83
2022-12-25T13:32:31.014Z,50.33
2022-12-25T13:34:58.769Z,49.55
2022-12-25T13:37:28.783Z,56.53
2022-12-25T13:39:57.515Z,51.58
2022-12-25T13:42:31.041Z,51.88
2022-12-25T13:45:06.460Z,51.55
2022-12-25T13:47:39.434Z,54.20
2022-12-25T13:50:26.613Z,54.05
2022-12-25T13:52:56.227Z,57.35
2022-12-25T13:55:26.389Z,52.42
2022-12-25T13:58:01.920Z,50.20
2022-12-25T14:00:36.779Z,57.67
2022-12-25T14:03:05.532Z,59.47
2022-12-25T14:05:42.287Z,65.60
2022-12-25T14:08:15.808Z,58.08
2022-12-25T14:10:45.698Z,56.42
2022-12-25T14:13:13.939Z,61.38
2022-12-25T14:15:41.527Z,52.47
2022-12-25T14:18:15.210Z,53.35
2022-12-25T14:20:55.001Z,60.22
2022-12-25T14:23:22.539Z,59.28
2022-12-25T14:25:49.896Z,68.93
2022-12-25T14:28:25.494Z,73.22
2022-12-25T14:30:54.030Z,67.18
2022-12-25T14:33:23.671Z,54.63
2022-12-25T14:35:51.469Z,60.42
2022-12-25T14:38:29.180Z,58.72
2022-12-25T14:41:00.734Z,63.63
2022-12-25T14:43:29.143Z,83.32
2022-12-25T14:46:01.111Z,75.03
2022-12-25T14:48:30.766Z,67.68
2022-12-25T14:51:04.808Z,185.05
2022-12-25T14:53:40.667Z,111.20
2022-12-25T14:56:10.213Z,93.20
2022-12-25T14:58:42.945Z,92.05
2022-12-25T15:01:21.676Z,92.78
2022-12-25T15:03:49.489Z,94.90
2022-12-25T15:06:22.643Z,83.43
2022-12-25T15:09:15.463Z,75.82
2022-12-25T15:11:42.775Z,74.00
2022-12-25T15:14:10.154Z,99.75
2022-12-25T15:16:42.101Z,91.25
2022-12-25T15:19:12.068Z,96.20
2022-12-25T15:21:39.262Z,84.18
2022-12-25T15:24:12.180Z,76.13
2022-12-25T15:26:39.783Z,75.63
2022-12-25T15:29:07.578Z,69.63
2022-12-25T15:31:37.240Z,77.57
2022-12-25T15:34:07.072Z,70.75
2022-12-25T15:36:34.327Z,73.40
2022-12-25T15:39:01.712Z,81.22
2022-12-25T15:41:50.235Z,79.70
2022-12-25T15:44:18.232Z,73.60
2022-12-25T15:46:46.178Z,109.53
2022-12-25T15:49:15.038Z,98.88
2022-12-25T15:51:43.043Z,93.80
2022-12-25T15:54:11.021Z,84.10
2022-12-25T15:56:45.011Z,74.25
2022-12-25T15:59:13.405Z,81.75
2022-12-25T16:01:47.715Z,96.00
2022-12-25T16:04:15.319Z,119.82
2022-12-25T16:06:42.561Z,100.95
2022-12-25T16:09:14.555Z,90.55
2022-12-25T16:11:42.180Z,80.85
2022-12-25T16:14:10.303Z,74.10
2022-12-25T16:16:37.621Z,80.68
2022-12-25T16:19:05.606Z,75.63
2022-12-25T16:21:41.783Z,81.72
2022-12-25T16:24:09.555Z,80.68
2022-12-25T16:26:36.777Z,100.93
2022-12-25T16:29:07.304Z,99.28
2022-12-25T16:31:36.187Z,99.05
2022-12-25T16:34:04.375Z,104.38
2022-12-25T16:36:31.614Z,121.70
2022-12-25T16:38:59.097Z,132.13
2022-12-25T16:41:26.289Z,116.07
2022-12-25T16:43:53.719Z,111.03
2022-12-25T16:46:22.014Z,110.13
2022-12-25T16:48:49.743Z,104.35
2022-12-25T16:51:19.875Z,111.00
2022-12-25T16:53:47.686Z,123.25
2022-12-25T16:56:17.921Z,125.15
2022-12-25T16:58:46.812Z,110.80
2022-12-25T17:01:17.077Z,114.80
2022-12-25T17:03:44.761Z,132.82
2022-12-25T17:06:23.779Z,119.88
2022-12-25T17:08:52.231Z,125.95
2022-12-25T17:11:24.343Z,119.97
2022-12-25T17:13:51.833Z,113.95
2022-12-25T17:16:25.007Z,134.27
2022-12-25T17:19:01.424Z,122.63
2022-12-25T17:21:29.213Z,146.10
2022-12-25T17:24:02.331Z,147.85
2022-12-25T17:26:32.246Z,124.30
2022-12-25T17:29:00.008Z,118.68
2022-12-25T17:31:27.973Z,133.43
2022-12-25T17:33:55.671Z,122.13
2022-12-25T17:36:23.402Z,117.90
2022-12-25T17:38:50.769Z,143.45
2022-12-25T17:41:19.421Z,140.60
2022-12-25T17:43:47.799Z,127.55
2022-12-25T17:46:20.929Z,128.55
2022-12-25T17:48:50.180Z,128.15
2022-12-25T17:51:21.276Z,129.68
2022-12-25T17:53:51.466Z,140.82
2022-12-25T17:56:19.770Z,152.27
2022-12-25T17:58:55.938Z,142.93
2022-12-25T18:01:25.010Z,151.20
2022-12-25T18:03:52.787Z,139.15
2022-12-25T18:06:22.250Z,168.50
2022-12-25T18:08:50.106Z,144.93
2022-12-25T18:11:24.629Z,158.13
2022-12-25T18:13:53.533Z,151.45
2022-12-25T18:16:23.638Z,163.35
2022-12-25T18:18:52.623Z,244.95
2022-12-25T18:21:22.345Z,166.27
2022-12-25T18:23:50.401Z,182.25
2022-12-25T18:26:18.670Z,182.95
2022-12-25T18:28:46.305Z,194.40
2022-12-25T18:31:15.699Z,187.50
2022-12-25T18:33:44.652Z,170.05
2022-12-25T18:36:20.041Z,184.88
2022-12-25T18:38:49.095Z,149.25
2022-12-25T18:41:16.588Z,160.57
2022-12-25T18:43:53.919Z,167.15
2022-12-25T18:46:27.347Z,171.18
2022-12-25T18:48:57.031Z,183.98
2022-12-25T18:51:24.871Z,204.73
2022-12-25T18:53:52.367Z,179.45
2022-12-25T18:56:20.048Z,177.23
2022-12-25T18:58:48.067Z,201.50
2022-12-25T19:01:18.710Z,174.73
2022-12-25T19:03:49.248Z,194.70
2022-12-25T19:06:23.343Z,151.50
2022-12-25T19:08:50.916Z,158.93
2022-12-25T19:11:18.725Z,148.13
2022-12-25T19:13:46.610Z,136.40
2022-12-25T19:16:14.101Z,155.48
2022-12-25T19:18:42.889Z,169.05
2022-12-25T19:21:10.480Z,155.93
2022-12-25T19:23:38.303Z,155.82
2022-12-25T19:26:07.453Z,153.23
2022-12-25T19:28:35.466Z,150.93
2022-12-25T19:31:04.879Z,133.85
2022-12-25T19:33:32.642Z,153.30
2022-12-25T19:36:01.160Z,145.20
2022-12-25T19:38:29.528Z,145.27
2022-12-25T19:41:02.502Z,149.57
2022-12-25T19:43:32.200Z,144.35
2022-12-25T19:46:00.190Z,194.52
2022-12-25T19:48:30.001Z,141.80
2022-12-25T19:50:57.912Z,159.32
2022-12-25T19:53:25.951Z,154.85
2022-12-25T19:55:53.719Z,159.80
2022-12-25T19:58:22.316Z,142.63
2022-12-25T20:01:02.963Z,182.23
2022-12-25T20:03:30.662Z,135.13
2022-12-25T20:05:57.933Z,163.25
2022-12-25T20:08:25.587Z,165.88
2022-12-25T20:10:52.987Z,177.35
2022-12-25T20:13:20.643Z,183.02
2022-12-25T20:15:48.279Z,169.50
2022-12-25T20:18:16.945Z,172.40
2022-12-25T20:20:44.793Z,188.75
2022-12-25T20:23:12.194Z,174.77
2022-12-25T20:25:41.051Z,180.02
2022-12-25T20:28:09.371Z,179.68
2022-12-25T20:30:40.581Z,192.77
2022-12-25T20:33:09.123Z,186.35
2022-12-25T20:35:36.538Z,213.15
2022-12-25T20:38:03.864Z,171.07
2022-12-25T20:40:34.622Z,145.10
2022-12-25T20:43:09.172Z,133.98
2022-12-25T20:45:42.523Z,174.05
2022-12-25T20:48:09.799Z,173.40
2022-12-25T20:50:37.166Z,162.25
2022-12-25T20:53:04.871Z,154.80
2022-12-25T20:55:32.132Z,172.52
2022-12-25T20:57:59.647Z,257.05
2022-12-25T21:00:26.827Z,147.70
2022-12-25T21:02:54.318Z,148.52
2022-12-25T21:05:23.765Z,167.35
2022-12-25T21:07:51.320Z,135.02
2022-12-25T21:10:18.537Z,135.82
2022-12-25T21:12:46.127Z,134.27
2022-12-25T21:15:15.732Z,136.77
2022-12-25T21:17:43.559Z,151.15
2022-12-25T21:20:11.193Z,142.85
2022-12-25T21:22:38.637Z,220.23
2022-12-25T21:25:05.899Z,148.18
2022-12-25T21:27:33.308Z,141.02
2022-12-25T21:30:15.077Z,139.68
2022-12-25T21:33:02.263Z,112.50
2022-12-25T21:35:30.802Z,126.65
2022-12-25T21:37:58.134Z,133.43
2022-12-25T21:40:25.686Z,136.75
2022-12-25T21:42:53.142Z,129.82
2022-12-25T21:45:20.561Z,120.00
2022-12-25T21:48:01.930Z,127.38
2022-12-25T21:50:49.296Z,128.85
2022-12-25T21:53:18.318Z,149.63
2022-12-25T21:56:00.691Z,140.65
2022-12-25T21:58:28.554Z,141.25
2022-12-25T22:00:55.808Z,134.20
2022-12-25T22:03:23.950Z,145.40
2022-12-25T22:06:09.839Z,137.00
2022-12-25T22:08:37.314Z,108.75
2022-12-25T22:11:04.654Z,131.57
2022-12-25T22:13:50.463Z,133.13
2022-12-25T22:16:36.263Z,123.28
2022-12-25T22:19:22.232Z,129.68
2022-12-25T22:21:49.379Z,122.13
2022-12-25T22:24:18.398Z,144.27
2022-12-25T22:26:46.128Z,148.77
2022-12-25T22:29:13.439Z,127.07
2022-12-25T22:31:46.488Z,135.43
2022-12-25T22:34:15.990Z,139.98
2022-12-25T22:36:43.405Z,147.32
2022-12-25T22:39:10.893Z,139.63
2022-12-25T22:41:38.061Z,131.52
2022-12-25T22:44:17.127Z,119.90
2022-12-25T22:46:45.122Z,132.63
2022-12-25T22:49:12.513Z,138.55
2022-12-25T22:51:39.566Z,134.70
2022-12-25T22:54:06.910Z,138.18
2022-12-25T22:56:34.103Z,153.55
2022-12-25T22:59:01.565Z,134.52
2022-12-25T23:01:28.871Z,134.27
2022-12-25T23:03:56.295Z,135.57
2022-12-25T23:06:23.540Z,134.05
2022-12-25T23:08:50.890Z,137.35
2022-12-25T23:11:18.227Z,134.90
2022-12-25T23:14:04.296Z,119.75
2022-12-25T23:16:31.516Z,122.60
2022-12-25T23:19:17.435Z,116.05
2022-12-25T23:22:02.924Z,104.15
2022-12-25T23:24:49.012Z,110.38
2022-12-25T23:27:18.174Z,108.10
2022-12-25T23:29:46.171Z,108.05
2022-12-25T23:32:22.449Z,102.18
2022-12-25T23:34:49.871Z,101.78
2022-12-25T23:37:17.413Z,109.00
2022-12-25T23:39:44.882Z,80.35
2022-12-25T23:42:11.962Z,98.20
2022-12-25T23:44:39.677Z,92.57
2022-12-25T23:47:06.960Z,106.70
2022-12-25T23:49:34.493Z,105.80
2022-12-25T23:52:01.664Z,107.38
2022-12-25T23:54:30.696Z,95.43
2022-12-25T23:56:59.234Z,114.35
2022-12-25T23:59:28.468Z,118.70
